Decoded Metar for LYUZ (UZICE PONIKVE in SERBIA) (IATA:N/A) | Meteo·Mobile Aviation Weather
aviador You're here:

LYUZ Decoded Metar

UZICE PONIKVE in SERBIA
Report Time2019-01-17 23:00:00
UTC Time2019-01-17 23:27:41
Flight Rules vfr VFR
Wind230° at 05 kt
W.Rank230° ranks 9
Current wind is below 230° avg. (5.5)
Visibility9999 m
Phenomena:N/A
Clouds:N/A
Expected CloudBase > 2,000 ft AGL from Temp-Dew spread
CeilingNone
Temp01°C (ISA -8)
Dew Point-4°C (70% RH)
AAT-3.3°C
QNH1014 hPa
Density Alt2,080 ft
Elevation3,012 ft
Report Wrong Elevation
Raw Report
METAR LYUZ 172300Z AUTO 23005KT 180V290 CAVOK 01/M04 Q1014=

Extra information for LYUZ:More info

Metar Taf Metar & Taf Last 4 Metars F.Rules Stats Wind Profile Meteogram Temp Stats Airport Information Weather charts Add Link Nearby VenuesMetar ALERT Operation Metar Decoded Social comments